Time;durP1;ratioP1;P1;durP2;ratioP2;P2;SDS_P1;SDS_P2;PMS_P1;PMS_P2;Temp;Humidity;BMP_temperature;BMP_pressure;BME280_temperature;BME280_humidity;BME280_pressure;Samples;Min_cycle;Max_cycle;Signal;HPM_P1;HPM_P2
2022/10/16 00:01:31;;;;;;;9.93;5.72;;;;;;;11.08;100.00;101011.47;5034197;28;20025;-79
2022/10/16 00:03:58;;;;;;;10.35;5.43;;;;;;;11.04;100.00;101004.03;5033900;28;20026;-79
2022/10/16 00:06:25;;;;;;;11.25;6.47;;;;;;;11.02;100.00;101004.13;5034128;28;20034;-78
2022/10/16 00:08:52;;;;;;;11.55;5.60;;;;;;;10.75;100.00;100967.91;5033636;28;20044;-78
2022/10/16 00:11:38;;;;;;;16.38;6.50;;;;;;;10.91;100.00;100991.03;5016519;28;20053;-76
2022/10/16 00:14:07;;;;;;;14.32;6.45;;;;;;;10.94;100.00;101011.53;5033800;28;20064;-75
2022/10/16 00:16:34;;;;;;;9.27;5.95;;;;;;;10.86;100.00;101001.66;5034134;28;20025;-78
2022/10/16 00:19:00;;;;;;;9.75;5.82;;;;;;;10.81;100.00;100992.50;5033626;28;20033;-79
2022/10/16 00:21:27;;;;;;;11.60;6.05;;;;;;;10.87;100.00;101013.63;5033288;28;20040;-76
2022/10/16 00:23:56;;;;;;;10.93;5.93;;;;;;;10.83;100.00;101013.94;5033430;28;20040;-78
2022/10/16 00:26:22;;;;;;;10.43;5.85;;;;;;;10.77;100.00;101002.22;5033684;28;20029;-75
2022/10/16 00:28:51;;;;;;;12.90;6.25;;;;;;;10.80;100.00;101014.94;5033481;28;20389;-76
2022/10/16 00:31:18;;;;;;;10.52;6.00;;;;;;;10.76;100.00;101013.47;5033381;28;20437;-76
2022/10/16 00:33:44;;;;;;;8.98;5.85;;;;;;;10.71;100.00;101007.75;5033381;28;20028;-76
2022/10/16 00:36:12;;;;;;;11.35;6.10;;;;;;;10.77;100.00;101012.53;5033200;28;20025;-76
2022/10/16 00:38:37;;;;;;;11.90;6.18;;;;;;;10.74;100.00;101010.16;5033280;28;20025;-76
2022/10/16 00:41:03;;;;;;;11.30;6.28;;;;;;;10.72;100.00;101012.00;5033403;28;20480;-76
2022/10/16 00:43:40;;;;;;;11.25;6.25;;;;;;;10.70;100.00;101013.00;5033119;28;20025;-77
2022/10/16 00:46:14;;;;;;;10.98;5.82;;;;;;;10.58;100.00;101001.66;5032996;28;20025;-76
2022/10/16 00:48:41;;;;;;;10.07;6.10;;;;;;;10.63;100.00;101012.56;5033189;28;20139;-76
2022/10/16 00:51:08;;;;;;;10.73;5.90;;;;;;;10.60;100.00;101018.72;5032976;28;20377;-76
2022/10/16 00:53:34;;;;;;;11.05;6.32;;;;;;;10.40;100.00;100989.84;5032916;28;20071;-76
2022/10/16 00:55:59;;;;;;;11.77;6.07;;;;;;;10.52;100.00;101015.78;5032847;28;20045;-77
2022/10/16 00:58:25;;;;;;;11.90;6.43;;;;;;;10.49;100.00;101012.53;5032765;28;20082;-75
2022/10/16 01:00:50;;;;;;;10.98;5.78;;;;;;;10.42;100.00;101006.06;5032914;28;20083;-79
2022/10/16 01:03:23;;;;;;;9.50;5.40;;;;;;;10.33;100.00;100986.81;5033034;28;20027;-78
2022/10/16 01:06:14;;;;;;;13.77;5.80;;;;;;;10.45;100.00;101011.91;5032915;28;20366;-79
2022/10/16 01:09:13;;;;;;;11.77;5.72;;;;;;;10.36;100.00;100990.97;5015509;28;20075;-77
2022/10/16 01:11:51;;;;;;;11.05;5.68;;;;;;;10.51;100.00;101006.34;5033031;28;20036;-78
2022/10/16 01:14:30;;;;;;;10.10;5.72;;;;;;;10.51;100.00;101002.94;5032035;28;20140;-76
2022/10/16 01:17:06;;;;;;;8.55;4.53;;;;;;;10.39;100.00;100988.19;5033058;28;20034;-78
2022/10/16 01:19:31;;;;;;;11.77;5.32;;;;;;;10.52;100.00;101009.75;5032954;28;20452;-77
2022/10/16 01:21:59;;;;;;;10.20;5.15;;;;;;;10.41;100.00;100991.50;5032801;28;20053;-79
2022/10/16 01:24:33;;;;;;;9.27;5.45;;;;;;;10.59;100.00;101011.91;5032696;28;20030;-76
2022/10/16 01:27:12;;;;;;;8.80;5.68;;;;;;;10.64;100.00;101021.97;5032614;28;20481;-78
2022/10/16 01:29:53;;;;;;;10.20;4.90;;;;;;;10.67;100.00;101020.94;5032491;28;20025;-78
2022/10/16 01:33:00;;;;;;;10.20;5.03;;;;;;;10.67;100.00;101010.63;5032713;28;20044;-79
2022/10/16 01:35:33;;;;;;;10.05;4.95;;;;;;;10.53;100.00;100994.22;4971659;28;20057;-79
2022/10/16 01:38:04;;;;;;;10.10;4.80;;;;;;;10.66;100.00;101012.38;4971709;28;20395;-79
2022/10/16 01:40:33;;;;;;;10.40;5.05;;;;;;;10.52;100.00;100987.38;4971811;28;20027;-78
2022/10/16 01:43:05;;;;;;;7.63;4.95;;;;;;;10.69;100.00;101011.34;4971816;28;20045;-79
2022/10/16 01:45:32;;;;;;;14.52;5.13;;;;;;;10.67;100.00;101016.59;4971551;28;20039;-78
2022/10/16 01:48:00;;;;;;;9.98;5.00;;;;;;;10.62;100.00;101014.31;4971777;28;20035;-77
2022/10/16 01:50:26;;;;;;;8.88;4.80;;;;;;;10.65;100.00;101027.97;4964100;28;20031;-79
2022/10/16 01:52:53;;;;;;;8.27;4.63;;;;;;;10.50;100.00;100989.22;4971754;28;20066;-79
2022/10/16 01:55:24;;;;;;;9.30;4.57;;;;;;;10.68;100.00;101015.69;4971862;28;20035;-79
2022/10/16 01:57:52;;;;;;;9.33;4.77;;;;;;;10.64;100.00;101011.63;4971691;28;20057;-80
2022/10/16 02:00:20;;;;;;;9.82;4.32;;;;;;;10.64;100.00;101011.63;4971624;28;20529;-79
2022/10/16 02:02:49;;;;;;;9.70;4.90;;;;;;;10.68;100.00;101009.69;4971519;28;20110;-79
2022/10/16 02:05:29;;;;;;;11.90;4.47;;;;;;;10.66;100.00;101019.28;4971884;28;20073;-79
2022/10/16 02:07:54;;;;;;;9.43;4.32;;;;;;;10.68;100.00;101017.44;4971619;28;20034;-79
2022/10/16 02:10:20;;;;;;;8.95;4.40;;;;;;;10.73;100.00;101024.00;4985693;28;20041;-79
2022/10/16 02:12:55;;;;;;;8.70;4.20;;;;;;;10.76;100.00;101023.81;5032382;28;20124;-80
2022/10/16 02:15:20;;;;;;;8.00;4.28;;;;;;;10.77;100.00;101028.03;5032357;28;20109;-79
2022/10/16 02:17:45;;;;;;;6.50;3.70;;;;;;;10.67;100.00;101010.63;5032363;28;20075;-79
2022/10/16 02:20:11;;;;;;;7.72;4.18;;;;;;;10.75;100.00;101034.22;5015061;28;20022;-80
2022/10/16 02:22:40;;;;;;;9.77;4.03;;;;;;;10.60;100.00;101010.97;5032362;28;20099;-80
2022/10/16 02:25:26;;;;;;;10.00;4.20;;;;;;;10.66;100.00;101027.88;5032378;28;20037;-80
2022/10/16 02:27:57;;;;;;;7.18;3.65;;;;;;;10.62;100.00;101022.06;5017980;28;20381;-78
2022/10/16 02:30:38;;;;;;;9.98;4.03;;;;;;;10.59;100.00;101019.66;5035492;28;20029;-79
2022/10/16 02:33:07;;;;;;;8.65;4.13;;;;;;;10.44;100.00;100991.34;5035677;28;20045;-79
2022/10/16 02:35:33;;;;;;;9.13;3.80;;;;;;;10.48;100.00;101016.88;5035648;28;20103;-79
2022/10/16 02:37:59;;;;;;;7.70;3.90;;;;;;;10.40;100.00;101011.34;5035453;28;20029;-79
2022/10/16 02:40:25;;;;;;;8.38;4.30;;;;;;;10.28;100.00;101002.56;5027610;28;20025;-78
2022/10/16 02:42:52;;;;;;;7.97;4.10;;;;;;;10.33;100.00;101023.78;5017183;28;20397;-79
2022/10/16 02:45:18;;;;;;;7.75;3.97;;;;;;;10.08;100.00;100997.72;5035344;28;20075;-79
2022/10/16 02:47:44;;;;;;;8.20;3.80;;;;;;;10.28;100.00;101028.38;5035477;28;20037;-79
2022/10/16 02:50:09;;;;;;;9.35;4.10;;;;;;;10.19;100.00;101010.81;5035374;28;20485;-80
2022/10/16 02:52:35;;;;;;;7.68;4.40;;;;;;;10.15;100.00;100998.19;5035337;28;20108;-78
2022/10/16 02:55:00;;;;;;;7.07;4.07;;;;;;;10.14;100.00;100999.94;5035370;28;20103;-80
2022/10/16 02:57:25;;;;;;;9.52;4.60;;;;;;;10.12;100.00;101006.91;5035237;28;20050;-79
2022/10/16 02:59:51;;;;;;;7.70;4.47;;;;;;;10.15;100.00;101021.41;5035184;28;20025;-79
2022/10/16 03:02:16;;;;;;;7.82;4.55;;;;;;;10.02;100.00;101004.03;5035141;28;20538;-79
2022/10/16 03:04:41;;;;;;;8.20;4.18;;;;;;;10.11;100.00;101019.91;5035233;28;20029;-79
2022/10/16 03:07:07;;;;;;;8.82;3.97;;;;;;;10.10;100.00;101019.09;5035110;28;20049;-79
2022/10/16 03:09:33;;;;;;;9.07;4.53;;;;;;;10.09;100.00;101026.91;5035023;28;20049;-78
2022/10/16 03:11:58;;;;;;;6.45;4.18;;;;;;;10.06;100.00;101028.75;5016510;28;20044;-80
2022/10/16 03:14:24;;;;;;;9.43;4.30;;;;;;;9.83;100.00;100985.38;5035198;28;20025;-79
2022/10/16 03:16:49;;;;;;;11.77;4.78;;;;;;;9.83;100.00;100987.97;5034937;28;20025;-79
2022/10/16 03:19:16;;;;;;;9.73;4.40;;;;;;;10.01;100.00;101028.19;5035046;28;20416;-80
2022/10/16 03:21:42;;;;;;;6.82;4.10;;;;;;;10.04;100.00;101032.38;5035077;28;20117;-79
2022/10/16 03:24:07;;;;;;;7.55;3.97;;;;;;;10.04;100.00;101042.69;5034870;28;20544;-78
2022/10/16 03:26:32;;;;;;;9.77;4.25;;;;;;;10.05;100.00;101045.16;5034541;28;20030;-80
2022/10/16 03:28:58;;;;;;;8.85;4.30;;;;;;;9.99;100.00;101044.69;5034914;28;20025;-80
2022/10/16 03:31:23;;;;;;;10.10;4.43;;;;;;;9.99;100.00;101035.19;5034803;28;20100;-78
2022/10/16 03:33:48;;;;;;;7.00;4.13;;;;;;;10.01;100.00;101048.81;5034605;28;20061;-79
2022/10/16 03:36:13;;;;;;;8.35;4.13;;;;;;;10.05;100.00;101050.31;5034093;28;20033;-79
2022/10/16 03:38:39;;;;;;;8.40;3.90;;;;;;;9.83;100.00;101005.19;5016857;28;20619;-79
2022/10/16 03:41:04;;;;;;;9.90;4.00;;;;;;;10.09;100.00;101047.56;5034192;28;20029;-78
2022/10/16 03:43:30;;;;;;;8.82;3.97;;;;;;;10.18;100.00;101044.47;5034706;28;20029;-79
2022/10/16 03:45:55;;;;;;;7.25;3.70;;;;;;;10.18;100.00;101052.19;5034486;28;20026;-79
2022/10/16 03:48:20;;;;;;;8.00;3.92;;;;;;;10.18;100.00;101057.34;5034382;28;20034;-80
2022/10/16 03:50:48;;;;;;;6.32;3.40;;;;;;;10.11;100.00;101041.38;5034245;28;20129;-79
2022/10/16 03:53:14;;;;;;;8.00;3.60;;;;;;;10.17;100.00;101053.94;5034247;28;20075;-79
2022/10/16 03:55:41;;;;;;;6.97;3.88;;;;;;;10.18;100.00;101062.53;5033839;28;20108;-78
2022/10/16 03:58:07;;;;;;;7.88;3.78;;;;;;;10.20;100.00;101064.09;5033969;28;20489;-79
2022/10/16 04:00:32;;;;;;;8.25;3.83;;;;;;;10.20;100.00;101068.41;5034294;28;20052;-79
2022/10/16 04:02:57;;;;;;;6.85;3.50;;;;;;;10.22;100.00;101062.28;5033877;28;20329;-79
2022/10/16 04:05:23;;;;;;;7.63;3.60;;;;;;;10.27;100.00;101069.75;5033880;28;20029;-78
2022/10/16 04:07:48;;;;;;;11.25;3.50;;;;;;;10.32;100.00;101067.72;5033947;28;20072;-78
2022/10/16 04:10:13;;;;;;;5.97;3.15;;;;;;;10.30;100.00;101070.41;5033777;28;20038;-79
2022/10/16 04:12:39;;;;;;;6.32;3.15;;;;;;;10.31;100.00;101072.06;5033723;28;20033;-79
2022/10/16 04:15:04;;;;;;;6.60;3.15;;;;;;;10.28;100.00;101071.44;5033758;28;20487;-79
2022/10/16 04:17:30;;;;;;;6.97;3.50;;;;;;;10.21;100.00;101058.00;5033582;28;20092;-79
2022/10/16 04:19:55;;;;;;;8.40;3.40;;;;;;;10.24;100.00;101064.78;5033781;28;20521;-79
2022/10/16 04:22:20;;;;;;;7.10;3.03;;;;;;;10.32;100.00;101075.47;5033477;28;20109;-79
2022/10/16 04:24:45;;;;;;;8.75;3.80;;;;;;;10.32;100.00;101084.09;5033710;28;20060;-79
2022/10/16 04:27:11;;;;;;;16.42;4.07;;;;;;;10.34;100.00;101081.41;5033434;28;20021;-79
2022/10/16 04:29:36;;;;;;;7.22;3.45;;;;;;;10.23;100.00;101073.47;5033653;28;20026;-79
2022/10/16 04:32:01;;;;;;;6.97;3.90;;;;;;;10.28;100.00;101069.69;5033486;28;20032;-79
2022/10/16 04:34:27;;;;;;;10.48;3.50;;;;;;;10.29;100.00;101078.25;5033198;28;20029;-79
2022/10/16 04:36:52;;;;;;;7.90;3.60;;;;;;;10.23;100.00;101074.28;5033368;28;20021;-79
2022/10/16 04:39:17;;;;;;;7.80;3.45;;;;;;;10.28;100.00;101081.75;5033307;28;20115;-78
2022/10/16 04:41:43;;;;;;;9.65;3.70;;;;;;;10.24;100.00;101078.53;5033331;28;20583;-79
2022/10/16 04:44:08;;;;;;;7.13;3.53;;;;;;;10.27;100.00;101090.41;5033240;28;20033;-79
2022/10/16 04:46:34;;;;;;;7.90;4.03;;;;;;;10.26;100.00;101087.00;5033278;28;20116;-80
2022/10/16 04:48:59;;;;;;;7.68;3.47;;;;;;;10.23;100.00;101088.94;5032220;28;20084;-79
2022/10/16 04:51:26;;;;;;;8.90;3.70;;;;;;;10.23;100.00;101088.94;5032999;28;20017;-78
2022/10/16 04:53:51;;;;;;;6.88;3.60;;;;;;;10.17;100.00;101090.06;5033080;28;20029;-79
2022/10/16 04:56:17;;;;;;;6.97;4.20;;;;;;;10.23;100.00;101099.25;5032978;28;20585;-79
2022/10/16 04:58:42;;;;;;;8.23;4.20;;;;;;;10.08;100.00;101080.28;5014942;28;20049;-79
2022/10/16 05:01:07;;;;;;;8.60;3.88;;;;;;;10.14;100.00;101097.19;5033185;28;20025;-79
2022/10/16 05:03:33;;;;;;;6.82;3.92;;;;;;;10.12;100.00;101109.31;5032911;28;20099;-77
2022/10/16 05:05:58;;;;;;;7.45;3.78;;;;;;;10.19;100.00;101128.69;5032971;28;20095;-77
2022/10/16 05:08:23;;;;;;;8.07;4.07;;;;;;;10.15;100.00;101127.22;5032923;28;20554;-79
2022/10/16 05:10:49;;;;;;;8.23;4.07;;;;;;;10.06;100.00;101119.06;5032999;28;20018;-77
2022/10/16 05:13:14;;;;;;;6.65;3.72;;;;;;;10.09;100.00;101125.81;5032959;28;20036;-79
2022/10/16 05:15:40;;;;;;;8.50;3.75;;;;;;;10.07;100.00;101120.72;5032777;28;20073;-79
2022/10/16 05:18:05;;;;;;;9.00;4.22;;;;;;;10.09;100.00;101122.41;5032769;28;20032;-78
2022/10/16 05:20:30;;;;;;;8.32;4.32;;;;;;;10.10;100.00;101113.72;5032806;28;20022;-79
2022/10/16 05:22:56;;;;;;;8.40;4.18;;;;;;;10.09;100.00;101125.81;5032936;28;20512;-79
2022/10/16 05:25:21;;;;;;;7.07;4.00;;;;;;;10.05;100.00;101126.91;5032885;28;20022;-80
2022/10/16 05:27:48;;;;;;;8.93;4.75;;;;;;;10.06;100.00;101136.31;5032850;28;20041;-79
2022/10/16 05:30:14;;;;;;;7.10;4.15;;;;;;;10.04;100.00;101141.56;5032646;28;20056;-77
2022/10/16 05:32:39;;;;;;;12.65;4.35;;;;;;;9.95;100.00;101138.66;5032809;28;20033;-77
2022/10/16 05:35:05;;;;;;;9.38;4.75;;;;;;;9.89;100.00;101137.22;5032639;28;20025;-78
2022/10/16 05:37:30;;;;;;;10.25;4.68;;;;;;;9.88;100.00;101135.56;5032782;28;20025;-80
2022/10/16 05:39:55;;;;;;;8.18;4.60;;;;;;;9.89;100.00;101152.72;5032821;28;20029;-80
2022/10/16 05:42:21;;;;;;;8.25;4.18;;;;;;;9.94;100.00;101168.78;5032751;28;20054;-79
2022/10/16 05:44:46;;;;;;;8.45;3.95;;;;;;;9.90;100.00;101180.16;5032745;28;20030;-74
2022/10/16 05:47:14;;;;;;;10.00;4.35;;;;;;;9.70;100.00;101155.44;5032163;28;20061;-78
2022/10/16 05:49:40;;;;;;;9.00;4.53;;;;;;;9.80;100.00;101173.84;5032345;28;20571;-79
2022/10/16 05:52:05;;;;;;;8.80;4.63;;;;;;;9.86;100.00;101178.69;5032513;28;20104;-79
2022/10/16 05:54:30;;;;;;;8.40;4.50;;;;;;;9.83;100.00;101196.06;5032657;28;20111;-79
2022/10/16 05:56:56;;;;;;;12.05;5.15;;;;;;;9.69;100.00;101184.75;5032674;28;20041;-79
2022/10/16 05:59:21;;;;;;;8.90;4.10;;;;;;;9.78;100.00;101204.88;5033324;28;20025;-79
2022/10/16 06:01:46;;;;;;;10.88;5.00;;;;;;;9.76;100.00;101213.63;5035988;28;20033;-79
2022/10/16 06:04:11;;;;;;;8.00;4.57;;;;;;;9.66;100.00;101205.53;5036398;28;20084;-80
2022/10/16 06:06:37;;;;;;;9.15;4.82;;;;;;;9.66;100.00;101221.00;5036304;28;20060;-79
2022/10/16 06:09:03;;;;;;;11.77;4.38;;;;;;;9.67;100.00;101217.53;5302775;22;20039;-79
2022/10/16 06:11:31;;;;;;;9.55;4.00;;;;;;;9.55;100.00;101207.84;5036056;28;20046;-75
2022/10/16 06:14:01;;;;;;;10.13;4.72;;;;;;;9.49;100.00;101201.25;5036286;28;20041;-80
2022/10/16 06:16:27;;;;;;;9.35;4.22;;;;;;;9.58;100.00;101222.31;5035992;28;20113;-80
2022/10/16 06:18:53;;;;;;;10.65;4.40;;;;;;;9.62;100.00;101234.13;5036022;28;20404;-80
2022/10/16 06:21:24;;;;;;;8.13;4.60;;;;;;;9.57;100.00;101228.41;5035714;28;20030;-79
2022/10/16 06:23:50;;;;;;;9.03;4.77;;;;;;;9.48;100.00;101221.97;5036004;28;20017;-79
2022/10/16 06:26:17;;;;;;;9.68;4.50;;;;;;;9.60;100.00;101241.94;5035872;28;20507;-80
2022/10/16 06:28:43;;;;;;;10.68;5.13;;;;;;;9.65;100.00;101242.56;5035562;28;20026;-80
2022/10/16 06:31:10;;;;;;;11.18;5.47;;;;;;;9.67;100.00;101245.88;5035615;28;20534;-79
2022/10/16 06:33:36;;;;;;;12.15;5.78;;;;;;;9.72;100.00;101250.78;5035744;28;20075;-80
2022/10/16 06:36:02;;;;;;;16.27;5.60;;;;;;;9.71;100.00;101254.28;5035547;28;20484;-80
2022/10/16 06:38:28;;;;;;;10.57;5.50;;;;;;;9.73;100.00;101255.03;5035456;28;20036;-80
2022/10/16 06:40:53;;;;;;;11.55;5.57;;;;;;;9.80;100.00;101265.88;5035688;28;20021;-79
2022/10/16 06:43:19;;;;;;;14.48;5.50;;;;;;;9.86;100.00;101266.38;5035419;28;20044;-80
2022/10/16 06:45:53;;;;;;;13.02;5.65;;;;;;;9.95;100.00;101258.16;5035429;28;20159;-79
2022/10/16 06:48:19;;;;;;;12.25;5.28;;;;;;;10.05;100.00;101255.91;5035468;28;20040;-80
2022/10/16 06:50:44;;;;;;;11.98;5.45;;;;;;;10.19;100.00;101261.16;5035344;28;20025;-80
2022/10/16 06:53:09;;;;;;;10.98;6.15;;;;;;;10.40;100.00;101277.25;5035292;28;20026;-79
2022/10/16 06:55:34;;;;;;;12.63;6.40;;;;;;;10.55;100.00;101283.31;5035453;28;20045;-77
2022/10/16 06:58:00;;;;;;;10.63;5.47;;;;;;;10.70;100.00;101284.19;5035031;28;20112;-79
2022/10/16 07:00:25;;;;;;;12.32;5.25;;;;;;;10.85;100.00;101279.00;5034387;28;20492;-77
2022/10/16 07:02:50;;;;;;;11.90;4.85;;;;;;;11.02;100.00;101282.41;5035245;28;20035;-74
2022/10/16 07:05:16;;;;;;;11.82;4.88;;;;;;;11.11;100.00;101281.84;5035155;28;20073;-80
2022/10/16 07:07:41;;;;;;;9.27;4.10;;;;;;;11.43;100.00;101295.50;5035119;28;20021;-78
2022/10/16 07:10:07;;;;;;;10.32;3.75;;;;;;;11.60;100.00;101300.50;5034759;28;20108;-75
2022/10/16 07:12:32;;;;;;;8.52;3.80;;;;;;;11.68;100.00;101292.25;5033857;28;20124;-74
2022/10/16 07:14:58;;;;;;;9.43;4.13;;;;;;;11.87;100.00;101303.19;5034932;28;20052;-79
2022/10/16 07:17:23;;;;;;;7.22;3.85;;;;;;;11.98;100.00;101293.00;5034801;28;20450;-75
2022/10/16 07:19:49;;;;;;;11.30;3.83;;;;;;;12.22;100.00;101315.75;5033753;28;20033;-77
2022/10/16 07:22:14;;;;;;;7.55;3.25;;;;;;;12.18;100.00;101296.13;5034561;28;20053;-80
2022/10/16 07:24:39;;;;;;;9.32;3.67;;;;;;;12.40;100.00;101322.38;5034624;28;20022;-80
2022/10/16 07:27:05;;;;;;;7.72;3.08;;;;;;;12.39;100.00;101325.91;5034659;28;20029;-80
2022/10/16 07:29:30;;;;;;;10.18;3.40;;;;;;;12.38;100.00;101334.56;5034778;28;20022;-80
2022/10/16 07:31:55;;;;;;;8.10;3.40;;;;;;;12.36;100.00;101331.25;5034246;28;20029;-79
2022/10/16 07:34:21;;;;;;;9.20;3.35;;;;;;;12.36;100.00;101339.00;5016509;28;20080;-79
2022/10/16 07:36:50;;;;;;;10.75;3.60;;;;;;;12.30;100.00;101342.00;5016610;28;20473;-80
2022/10/16 07:39:16;;;;;;;9.07;3.47;;;;;;;12.16;100.00;101324.72;5034256;28;20105;-79
2022/10/16 07:41:41;;;;;;;10.50;3.80;;;;;;;12.28;100.00;101349.84;5034554;28;20052;-80
2022/10/16 07:44:07;;;;;;;10.57;3.80;;;;;;;12.27;100.00;101350.78;5034363;28;20544;-78
2022/10/16 07:46:33;;;;;;;7.93;3.33;;;;;;;12.25;100.00;101344.88;5034341;28;20507;-79
2022/10/16 07:48:59;;;;;;;8.98;3.60;;;;;;;12.33;100.00;101360.75;5034157;28;20428;-78
2022/10/16 07:51:26;;;;;;;6.38;3.20;;;;;;;12.27;100.00;101353.38;5034116;28;20029;-80
2022/10/16 07:53:52;;;;;;;6.93;3.50;;;;;;;12.44;100.00;101378.22;5034082;28;20079;-80
2022/10/16 07:56:19;;;;;;;7.07;3.38;;;;;;;12.39;100.00;101361.28;5034113;28;20099;-80
2022/10/16 07:58:45;;;;;;;7.93;3.40;;;;;;;12.54;100.00;101381.09;5034101;28;20030;-78
2022/10/16 08:01:14;;;;;;;8.73;4.13;;;;;;;12.49;100.00;101370.19;5016264;28;20045;-79
2022/10/16 08:03:50;;;;;;;8.88;3.60;;;;;;;12.51;100.00;101374.34;5033781;28;20045;-80
2022/10/16 08:06:17;;;;;;;13.50;3.45;;;;;;;12.53;100.00;101384.59;5033636;28;20022;-79
2022/10/16 08:08:42;;;;;;;9.77;3.40;;;;;;;12.41;100.00;101362.88;5033855;28;20065;-78
2022/10/16 08:11:08;;;;;;;8.90;3.50;;;;;;;12.54;100.00;101388.84;5033630;28;20057;-77
2022/10/16 08:13:33;;;;;;;9.70;3.53;;;;;;;12.43;100.00;101375.75;5033927;28;20028;-76
2022/10/16 08:15:59;;;;;;;7.93;3.05;;;;;;;12.61;100.00;101411.69;5033816;28;20404;-79
2022/10/16 08:18:24;;;;;;;6.03;3.35;;;;;;;12.64;100.00;101424.47;5033478;28;20025;-78
2022/10/16 08:20:57;;;;;;;10.73;3.72;;;;;;;12.52;100.00;101393.31;5033888;28;20152;-73
2022/10/16 08:23:25;;;;;;;8.55;3.70;;;;;;;12.70;100.00;101412.06;5015254;28;20158;-78
2022/10/16 08:25:51;;;;;;;8.90;3.92;;;;;;;12.81;100.00;101426.00;5033512;28;20025;-79
2022/10/16 08:28:16;;;;;;;9.60;3.28;;;;;;;12.87;100.00;101430.78;5033547;28;20029;-77
2022/10/16 08:30:41;;;;;;;6.43;2.78;;;;;;;12.92;100.00;101428.75;5033646;28;20083;-79
2022/10/16 08:33:07;;;;;;;7.35;3.20;;;;;;;12.90;100.00;101422.84;5033461;28;20122;-78
2022/10/16 08:35:32;;;;;;;7.72;3.20;;;;;;;12.92;100.00;101430.50;5033327;28;20044;-79
2022/10/16 08:37:58;;;;;;;10.63;3.45;;;;;;;13.02;100.00;101439.38;5033252;28;20041;-77
2022/10/16 08:40:31;;;;;;;6.53;2.55;;;;;;;12.89;100.00;101404.78;5033174;28;20025;-79
2022/10/16 08:42:59;;;;;;;11.27;3.10;;;;;;;13.13;100.00;101438.69;5033489;28;20033;-75
2022/10/16 08:45:56;;;;;;;10.02;3.05;;;;;;;13.14;100.00;101440.34;5033443;28;20083;-78
2022/10/16 08:48:30;;;;;;;7.20;3.13;;;;;;;13.11;100.00;101446.56;4953277;28;20498;-77
2022/10/16 08:50:56;;;;;;;8.20;2.65;;;;;;;13.26;100.00;101451.72;4953222;28;20039;-77
2022/10/16 08:53:30;;;;;;;6.28;3.05;;;;;;;13.43;100.00;101461.84;4952802;28;20578;-79
2022/10/16 08:55:56;;;;;;;6.13;3.17;;;;;;;13.57;100.00;101466.13;4953083;28;20031;-78
2022/10/16 08:58:26;;;;;;;9.13;2.75;;;;;;;13.53;100.00;101447.34;4952970;29;20110;-79
2022/10/16 09:00:58;;;;;;;7.63;2.50;;;;;;;13.62;100.00;101472.69;4953116;28;20031;-79
2022/10/16 09:03:50;;;;;;;10.02;3.00;;;;;;;13.60;100.00;101469.38;4953093;29;20054;-77
2022/10/16 09:06:18;;;;;;;9.23;2.70;;;;;;;13.60;100.00;101473.75;4953122;28;20455;-79
2022/10/16 09:09:01;;;;;;;12.05;2.92;;;;;;;13.44;100.00;101458.31;4952693;28;20038;-79
2022/10/16 09:11:35;;;;;;;9.52;2.47;;;;;;;13.56;100.00;101478.28;4952774;29;20059;-79
2022/10/16 09:14:26;;;;;;;8.52;2.53;;;;;;;13.59;100.00;101477.25;4952873;29;20421;-79
2022/10/16 09:17:03;;;;;;;9.30;2.70;;;;;;;13.67;100.00;101490.59;4953079;29;20028;-78
2022/10/16 09:19:36;;;;;;;6.78;2.38;;;;;;;13.62;100.00;101471.88;4952970;29;20046;-80
2022/10/16 09:22:12;;;;;;;12.18;2.70;;;;;;;13.43;100.00;101441.09;4953044;28;20043;-78
2022/10/16 09:24:37;;;;;;;6.60;2.22;;;;;;;13.72;100.00;101493.69;4968556;28;20063;-78
2022/10/16 09:27:03;;;;;;;8.05;2.60;;;;;;;13.75;100.00;101496.91;5032820;28;20487;-76
2022/10/16 09:29:28;;;;;;;8.40;2.58;;;;;;;13.72;100.00;101491.91;5032999;28;20030;-78
2022/10/16 09:31:57;;;;;;;6.95;2.80;;;;;;;13.80;99.94;101496.63;5032660;28;20473;-77
2022/10/16 09:34:36;;;;;;;10.07;3.08;;;;;;;13.91;100.00;101506.28;5033769;28;20030;-79
2022/10/16 09:37:09;;;;;;;8.10;2.97;;;;;;;13.97;98.11;101505.91;5036772;28;20538;-74
2022/10/16 09:39:46;;;;;;;9.27;2.65;;;;;;;14.00;97.70;101506.50;5036520;28;20477;-79
2022/10/16 09:42:35;;;;;;;9.57;2.95;;;;;;;14.04;98.48;101501.94;5036633;28;20022;-78
2022/10/16 09:45:00;;;;;;;12.15;2.83;;;;;;;13.99;98.21;101483.25;5036070;28;20045;-80
2022/10/16 09:47:28;;;;;;;11.55;3.10;;;;;;;14.15;98.74;101496.03;5036545;28;20128;-77
2022/10/16 09:49:58;;;;;;;12.30;2.50;;;;;;;14.16;96.84;101502.88;5036610;28;20032;-79
2022/10/16 09:52:24;;;;;;;9.50;3.20;;;;;;;14.17;97.07;101504.56;5036792;28;20032;-78
2022/10/16 09:54:57;;;;;;;11.32;2.85;;;;;;;14.18;97.36;101512.25;5036181;28;20022;-80
2022/10/16 09:57:24;;;;;;;15.00;3.20;;;;;;;14.23;96.16;101517.13;5036459;28;20026;-78
2022/10/16 09:59:51;;;;;;;11.05;2.90;;;;;;;14.32;96.04;101511.31;5036140;28;20030;-79
2022/10/16 10:02:19;;;;;;;12.85;3.17;;;;;;;14.37;94.07;101514.44;5036424;28;20033;-79
2022/10/16 10:04:51;;;;;;;15.13;3.63;;;;;;;14.42;94.04;101514.94;5036340;28;20023;-75
2022/10/16 10:07:29;;;;;;;10.38;3.30;;;;;;;14.51;94.90;101509.16;5036311;28;20025;-79
2022/10/16 10:09:57;;;;;;;11.65;3.03;;;;;;;14.64;93.81;101519.53;5035966;28;20129;-77
2022/10/16 10:12:25;;;;;;;12.70;2.92;;;;;;;14.69;94.39;101514.84;5036314;28;20037;-78
2022/10/16 10:14:54;;;;;;;11.30;2.70;;;;;;;14.69;93.86;101517.47;5036081;28;20026;-81
2022/10/16 10:17:25;;;;;;;12.85;2.35;;;;;;;14.63;91.76;101507.47;5036139;28;20026;-77
2022/10/16 10:19:56;;;;;;;13.32;3.05;;;;;;;14.69;93.25;101516.63;5036140;28;20025;-75
2022/10/16 10:22:29;;;;;;;12.32;3.15;;;;;;;14.59;92.92;101509.47;5036035;28;20065;-79
2022/10/16 10:25:12;;;;;;;13.80;3.22;;;;;;;14.74;93.55;101530.13;5035759;28;20029;-76
2022/10/16 10:28:14;;;;;;;12.18;3.53;;;;;;;14.84;93.00;101529.38;5035931;28;20029;-77
2022/10/16 10:31:04;;;;;;;12.30;3.50;;;;;;;14.98;90.56;101532.81;5035777;28;20392;-78
2022/10/16 10:33:49;;;;;;;14.23;2.63;;;;;;;14.98;89.16;101531.03;5035875;28;20030;-76
2022/10/16 10:36:35;;;;;;;13.65;2.90;;;;;;;15.06;90.67;101546.94;5035854;28;20021;-78
2022/10/16 10:39:12;;;;;;;11.77;2.38;;;;;;;15.13;88.52;101542.13;5035263;28;20033;-79
2022/10/16 10:41:59;;;;;;;11.10;3.03;;;;;;;15.20;87.52;101532.94;5017820;28;20385;-79
2022/10/16 10:44:50;;;;;;;11.02;2.53;;;;;;;15.25;88.52;101543.03;5035603;28;20465;-79
2022/10/16 10:47:35;;;;;;;11.77;2.72;;;;;;;15.32;86.85;101546.84;5034220;28;20029;-78
2022/10/16 10:50:13;;;;;;;11.63;2.72;;;;;;;15.45;86.12;101545.88;5035493;28;20029;-78
2022/10/16 10:52:51;;;;;;;11.48;2.83;;;;;;;15.58;86.71;101548.41;5035817;28;20029;-76
2022/10/16 10:55:27;;;;;;;8.65;2.00;;;;;;;15.76;83.91;101547.09;5035275;28;20035;-77
2022/10/16 10:58:30;;;;;;;13.38;2.58;;;;;;;15.96;81.21;101543.03;5035074;28;20030;-74
2022/10/16 11:01:17;;;;;;;12.80;2.42;;;;;;;16.13;80.64;101544.38;5035423;28;20032;-77
2022/10/16 11:04:01;;;;;;;13.90;3.05;;;;;;;16.27;79.91;101546.78;5035272;28;20025;-76
2022/10/16 11:06:59;;;;;;;16.65;2.88;;;;;;;16.50;80.32;101557.22;5035103;28;20044;-74
2022/10/16 11:09:30;;;;;;;9.45;2.00;;;;;;;16.49;76.40;101550.34;5029379;28;20054;-77
2022/10/16 11:12:31;;;;;;;12.38;2.13;;;;;;;16.42;78.87;101555.22;5035227;28;20044;-79
2022/10/16 11:15:11;;;;;;;10.95;2.53;;;;;;;16.35;77.60;101557.47;5007039;28;20500;-79
2022/10/16 11:17:44;;;;;;;12.32;2.17;;;;;;;16.28;76.32;101538.00;5035126;28;20034;-77
2022/10/16 11:20:22;;;;;;;10.98;2.53;;;;;;;16.34;78.15;101541.94;5035275;28;20044;-82
2022/10/16 11:22:52;;;;;;;10.65;2.25;;;;;;;16.48;77.68;101557.34;5035123;28;20025;-78
2022/10/16 11:25:29;;;;;;;10.63;3.00;;;;;;;16.58;77.45;101562.69;5034530;28;20079;-84
2022/10/16 11:28:15;;;;;;;10.60;1.95;;;;;;;16.59;77.81;101548.69;5017087;28;20080;-82